sensor_id;sensor_type;location;lat;lon;timestamp;P1;durP1;ratioP1;P2;durP2;ratioP2
61569;SDS011;47462;59.172;17.196;2022-12-15T00:00:05;4.88;;;2.65;;
61569;SDS011;47462;59.172;17.196;2022-12-15T00:02:50;4.57;;;2.70;;
61569;SDS011;47462;59.172;17.196;2022-12-15T00:05:34;4.05;;;2.80;;
61569;SDS011;47462;59.172;17.196;2022-12-15T00:08:18;5.10;;;2.28;;
61569;SDS011;47462;59.172;17.196;2022-12-15T00:11:02;3.58;;;2.20;;
61569;SDS011;47462;59.172;17.196;2022-12-15T00:13:46;5.03;;;2.38;;
61569;SDS011;47462;59.172;17.196;2022-12-15T00:16:30;4.30;;;2.10;;
61569;SDS011;47462;59.172;17.196;2022-12-15T00:19:14;4.28;;;2.17;;
61569;SDS011;47462;59.172;17.196;2022-12-15T00:21:58;9.00;;;2.45;;
61569;SDS011;47462;59.172;17.196;2022-12-15T00:24:42;4.20;;;2.40;;
61569;SDS011;47462;59.172;17.196;2022-12-15T00:27:26;5.22;;;2.35;;
61569;SDS011;47462;59.172;17.196;2022-12-15T00:30:10;3.80;;;2.63;;
61569;SDS011;47462;59.172;17.196;2022-12-15T00:32:55;4.55;;;3.28;;
61569;SDS011;47462;59.172;17.196;2022-12-15T00:35:39;3.38;;;2.03;;
61569;SDS011;47462;59.172;17.196;2022-12-15T00:38:23;4.40;;;2.38;;
61569;SDS011;47462;59.172;17.196;2022-12-15T00:41:06;7.28;;;2.47;;
61569;SDS011;47462;59.172;17.196;2022-12-15T00:43:32;5.22;;;2.80;;
61569;SDS011;47462;59.172;17.196;2022-12-15T00:45:59;3.65;;;2.25;;
61569;SDS011;47462;59.172;17.196;2022-12-15T00:48:45;11.55;;;2.60;;
61569;SDS011;47462;59.172;17.196;2022-12-15T00:51:11;3.60;;;2.42;;
61569;SDS011;47462;59.172;17.196;2022-12-15T00:53:37;4.35;;;2.47;;
61569;SDS011;47462;59.172;17.196;2022-12-15T00:56:23;4.18;;;2.42;;
61569;SDS011;47462;59.172;17.196;2022-12-15T00:59:07;3.33;;;2.45;;
61569;SDS011;47462;59.172;17.196;2022-12-15T01:01:52;3.65;;;2.25;;
61569;SDS011;47462;59.172;17.196;2022-12-15T01:04:36;3.10;;;1.90;;
61569;SDS011;47462;59.172;17.196;2022-12-15T01:07:20;5.10;;;2.40;;
61569;SDS011;47462;59.172;17.196;2022-12-15T01:10:04;4.38;;;2.15;;
61569;SDS011;47462;59.172;17.196;2022-12-15T01:12:48;3.00;;;2.45;;
61569;SDS011;47462;59.172;17.196;2022-12-15T01:15:34;3.45;;;2.13;;
61569;SDS011;47462;59.172;17.196;2022-12-15T01:18:19;3.35;;;2.10;;
61569;SDS011;47462;59.172;17.196;2022-12-15T01:21:04;2.45;;;1.92;;
61569;SDS011;47462;59.172;17.196;2022-12-15T01:23:32;4.47;;;2.47;;
61569;SDS011;47462;59.172;17.196;2022-12-15T01:26:01;2.45;;;1.63;;
61569;SDS011;47462;59.172;17.196;2022-12-15T01:28:27;5.10;;;1.88;;
61569;SDS011;47462;59.172;17.196;2022-12-15T01:30:52;2.42;;;2.00;;
61569;SDS011;47462;59.172;17.196;2022-12-15T01:33:18;2.72;;;2.00;;
61569;SDS011;47462;59.172;17.196;2022-12-15T01:35:44;3.03;;;2.30;;
61569;SDS011;47462;59.172;17.196;2022-12-15T01:38:18;3.08;;;1.73;;
61569;SDS011;47462;59.172;17.196;2022-12-15T01:40:49;4.38;;;1.92;;
61569;SDS011;47462;59.172;17.196;2022-12-15T01:43:20;4.68;;;2.53;;
61569;SDS011;47462;59.172;17.196;2022-12-15T01:46:00;3.40;;;2.13;;
61569;SDS011;47462;59.172;17.196;2022-12-15T01:51:15;4.43;;;1.92;;
61569;SDS011;47462;59.172;17.196;2022-12-15T01:53:44;4.53;;;2.22;;
61569;SDS011;47462;59.172;17.196;2022-12-15T01:56:12;3.15;;;2.00;;
61569;SDS011;47462;59.172;17.196;2022-12-15T01:58:38;4.18;;;2.33;;
61569;SDS011;47462;59.172;17.196;2022-12-15T02:01:07;3.95;;;2.08;;
61569;SDS011;47462;59.172;17.196;2022-12-15T02:03:33;5.82;;;2.55;;
61569;SDS011;47462;59.172;17.196;2022-12-15T02:05:59;3.13;;;1.98;;
61569;SDS011;47462;59.172;17.196;2022-12-15T02:08:27;5.45;;;2.45;;
61569;SDS011;47462;59.172;17.196;2022-12-15T02:31:03;5.63;;;2.45;;
61569;SDS011;47462;59.172;17.196;2022-12-15T02:33:57;2.33;;;1.92;;
61569;SDS011;47462;59.172;17.196;2022-12-15T02:36:34;3.15;;;2.00;;
61569;SDS011;47462;59.172;17.196;2022-12-15T02:39:03;3.10;;;2.03;;
61569;SDS011;47462;59.172;17.196;2022-12-15T03:00:51;3.92;;;2.10;;
61569;SDS011;47462;59.172;17.196;2022-12-15T03:03:23;4.03;;;2.25;;
61569;SDS011;47462;59.172;17.196;2022-12-15T03:05:50;8.02;;;1.90;;
61569;SDS011;47462;59.172;17.196;2022-12-15T03:08:21;3.83;;;2.20;;
61569;SDS011;47462;59.172;17.196;2022-12-15T03:10:51;3.78;;;2.05;;
61569;SDS011;47462;59.172;17.196;2022-12-15T03:13:18;4.43;;;2.17;;
61569;SDS011;47462;59.172;17.196;2022-12-15T03:15:44;4.35;;;1.98;;
61569;SDS011;47462;59.172;17.196;2022-12-15T03:18:10;3.38;;;2.10;;
61569;SDS011;47462;59.172;17.196;2022-12-15T03:20:35;2.50;;;1.73;;
61569;SDS011;47462;59.172;17.196;2022-12-15T03:23:00;3.73;;;2.40;;
61569;SDS011;47462;59.172;17.196;2022-12-15T03:25:26;3.28;;;2.17;;
61569;SDS011;47462;59.172;17.196;2022-12-15T03:27:52;4.47;;;3.00;;
61569;SDS011;47462;59.172;17.196;2022-12-15T03:30:17;20.47;;;10.27;;
61569;SDS011;47462;59.172;17.196;2022-12-15T03:32:42;20.73;;;10.48;;
61569;SDS011;47462;59.172;17.196;2022-12-15T03:35:08;30.05;;;13.80;;
61569;SDS011;47462;59.172;17.196;2022-12-15T03:37:33;39.72;;;17.02;;
61569;SDS011;47462;59.172;17.196;2022-12-15T03:39:59;13.13;;;5.80;;
61569;SDS011;47462;59.172;17.196;2022-12-15T03:42:24;16.63;;;6.67;;
61569;SDS011;47462;59.172;17.196;2022-12-15T03:45:08;12.48;;;5.78;;
61569;SDS011;47462;59.172;17.196;2022-12-15T03:47:34;9.05;;;3.67;;
61569;SDS011;47462;59.172;17.196;2022-12-15T03:49:59;7.88;;;3.75;;
61569;SDS011;47462;59.172;17.196;2022-12-15T03:52:25;4.53;;;2.85;;
61569;SDS011;47462;59.172;17.196;2022-12-15T03:54:50;4.70;;;2.58;;
61569;SDS011;47462;59.172;17.196;2022-12-15T03:57:15;4.67;;;2.80;;
61569;SDS011;47462;59.172;17.196;2022-12-15T03:59:41;3.63;;;2.37;;
61569;SDS011;47462;59.172;17.196;2022-12-15T04:02:07;6.53;;;2.73;;
61569;SDS011;47462;59.172;17.196;2022-12-15T04:04:33;4.85;;;2.30;;
61569;SDS011;47462;59.172;17.196;2022-12-15T04:06:59;5.15;;;2.05;;
61569;SDS011;47462;59.172;17.196;2022-12-15T04:09:24;3.35;;;2.20;;
61569;SDS011;47462;59.172;17.196;2022-12-15T04:11:49;2.60;;;2.00;;
61569;SDS011;47462;59.172;17.196;2022-12-15T04:14:15;3.83;;;2.37;;
61569;SDS011;47462;59.172;17.196;2022-12-15T04:16:40;2.75;;;1.98;;
61569;SDS011;47462;59.172;17.196;2022-12-15T04:19:06;3.23;;;1.80;;
61569;SDS011;47462;59.172;17.196;2022-12-15T04:21:50;2.90;;;1.90;;
61569;SDS011;47462;59.172;17.196;2022-12-15T04:24:16;3.72;;;2.22;;
61569;SDS011;47462;59.172;17.196;2022-12-15T04:27:00;4.57;;;2.22;;
61569;SDS011;47462;59.172;17.196;2022-12-15T04:29:44;2.20;;;1.58;;
61569;SDS011;47462;59.172;17.196;2022-12-15T04:32:28;3.58;;;2.05;;
61569;SDS011;47462;59.172;17.196;2022-12-15T04:35:12;4.00;;;2.50;;
61569;SDS011;47462;59.172;17.196;2022-12-15T04:37:56;3.97;;;2.70;;
61569;SDS011;47462;59.172;17.196;2022-12-15T04:40:40;4.40;;;3.03;;
61569;SDS011;47462;59.172;17.196;2022-12-15T04:43:24;4.10;;;2.60;;
61569;SDS011;47462;59.172;17.196;2022-12-15T04:46:08;3.88;;;2.90;;
61569;SDS011;47462;59.172;17.196;2022-12-15T04:48:52;4.53;;;2.88;;
61569;SDS011;47462;59.172;17.196;2022-12-15T04:51:36;3.72;;;2.70;;
61569;SDS011;47462;59.172;17.196;2022-12-15T04:54:20;4.05;;;2.72;;
61569;SDS011;47462;59.172;17.196;2022-12-15T04:57:04;5.15;;;2.70;;
61569;SDS011;47462;59.172;17.196;2022-12-15T04:59:47;5.00;;;3.42;;
61569;SDS011;47462;59.172;17.196;2022-12-15T05:02:32;5.55;;;3.45;;
61569;SDS011;47462;59.172;17.196;2022-12-15T05:05:16;5.18;;;3.50;;
61569;SDS011;47462;59.172;17.196;2022-12-15T05:08:00;4.47;;;2.53;;
61569;SDS011;47462;59.172;17.196;2022-12-15T05:10:44;3.10;;;2.10;;
61569;SDS011;47462;59.172;17.196;2022-12-15T05:13:28;4.13;;;2.53;;
61569;SDS011;47462;59.172;17.196;2022-12-15T05:16:12;3.97;;;2.53;;
61569;SDS011;47462;59.172;17.196;2022-12-15T05:18:56;4.65;;;2.28;;
61569;SDS011;47462;59.172;17.196;2022-12-15T05:21:40;4.35;;;2.47;;
61569;SDS011;47462;59.172;17.196;2022-12-15T05:24:24;3.53;;;2.30;;
61569;SDS011;47462;59.172;17.196;2022-12-15T05:27:08;3.97;;;1.92;;
61569;SDS011;47462;59.172;17.196;2022-12-15T05:29:52;5.05;;;2.78;;
61569;SDS011;47462;59.172;17.196;2022-12-15T05:32:36;4.65;;;2.47;;
61569;SDS011;47462;59.172;17.196;2022-12-15T05:35:02;7.43;;;3.35;;
61569;SDS011;47462;59.172;17.196;2022-12-15T05:37:27;6.70;;;4.50;;
61569;SDS011;47462;59.172;17.196;2022-12-15T05:39:53;8.80;;;3.87;;
61569;SDS011;47462;59.172;17.196;2022-12-15T05:42:19;4.93;;;3.17;;
61569;SDS011;47462;59.172;17.196;2022-12-15T05:44:44;4.07;;;3.53;;
61569;SDS011;47462;59.172;17.196;2022-12-15T05:47:10;5.90;;;3.40;;
61569;SDS011;47462;59.172;17.196;2022-12-15T05:49:35;4.90;;;3.58;;
61569;SDS011;47462;59.172;17.196;2022-12-15T05:52:01;6.15;;;3.95;;
61569;SDS011;47462;59.172;17.196;2022-12-15T05:54:26;7.53;;;4.47;;
61569;SDS011;47462;59.172;17.196;2022-12-15T05:56:51;7.30;;;4.57;;
61569;SDS011;47462;59.172;17.196;2022-12-15T05:59:17;4.80;;;2.67;;
61569;SDS011;47462;59.172;17.196;2022-12-15T06:01:43;5.22;;;2.92;;
61569;SDS011;47462;59.172;17.196;2022-12-15T06:09:02;4.03;;;2.40;;
61569;SDS011;47462;59.172;17.196;2022-12-15T06:11:27;6.60;;;2.80;;
61569;SDS011;47462;59.172;17.196;2022-12-15T06:13:53;2.65;;;2.05;;
61569;SDS011;47462;59.172;17.196;2022-12-15T06:16:20;3.15;;;2.28;;
61569;SDS011;47462;59.172;17.196;2022-12-15T06:18:47;7.65;;;3.92;;
61569;SDS011;47462;59.172;17.196;2022-12-15T06:21:15;4.90;;;3.80;;
61569;SDS011;47462;59.172;17.196;2022-12-15T06:23:43;8.10;;;5.78;;
61569;SDS011;47462;59.172;17.196;2022-12-15T06:28:57;6.07;;;3.30;;
61569;SDS011;47462;59.172;17.196;2022-12-15T06:31:26;5.28;;;3.35;;
61569;SDS011;47462;59.172;17.196;2022-12-15T06:33:52;5.25;;;3.92;;
61569;SDS011;47462;59.172;17.196;2022-12-15T06:36:19;7.72;;;5.43;;
61569;SDS011;47462;59.172;17.196;2022-12-15T06:38:45;5.60;;;4.30;;
61569;SDS011;47462;59.172;17.196;2022-12-15T06:41:11;6.07;;;4.45;;
61569;SDS011;47462;59.172;17.196;2022-12-15T06:43:38;5.80;;;3.70;;
61569;SDS011;47462;59.172;17.196;2022-12-15T06:48:30;7.97;;;3.72;;
61569;SDS011;47462;59.172;17.196;2022-12-15T06:50:55;7.32;;;3.30;;
61569;SDS011;47462;59.172;17.196;2022-12-15T06:53:26;4.25;;;3.20;;
61569;SDS011;47462;59.172;17.196;2022-12-15T06:55:51;4.47;;;2.95;;
61569;SDS011;47462;59.172;17.196;2022-12-15T06:58:17;4.03;;;2.92;;
61569;SDS011;47462;59.172;17.196;2022-12-15T07:00:43;4.63;;;2.97;;
61569;SDS011;47462;59.172;17.196;2022-12-15T07:03:14;6.13;;;3.45;;
61569;SDS011;47462;59.172;17.196;2022-12-15T07:05:41;4.68;;;3.00;;
61569;SDS011;47462;59.172;17.196;2022-12-15T07:08:07;6.28;;;3.10;;
61569;SDS011;47462;59.172;17.196;2022-12-15T07:10:36;4.60;;;2.92;;
61569;SDS011;47462;59.172;17.196;2022-12-15T07:13:05;5.10;;;2.65;;
61569;SDS011;47462;59.172;17.196;2022-12-15T07:15:33;4.40;;;2.65;;
61569;SDS011;47462;59.172;17.196;2022-12-15T07:17:59;3.97;;;2.75;;
61569;SDS011;47462;59.172;17.196;2022-12-15T07:20:24;5.20;;;2.60;;
61569;SDS011;47462;59.172;17.196;2022-12-15T07:22:50;4.53;;;3.13;;
61569;SDS011;47462;59.172;17.196;2022-12-15T07:27:41;4.75;;;3.03;;
61569;SDS011;47462;59.172;17.196;2022-12-15T07:30:07;4.30;;;2.45;;
61569;SDS011;47462;59.172;17.196;2022-12-15T07:32:36;5.18;;;2.75;;
61569;SDS011;47462;59.172;17.196;2022-12-15T07:35:01;7.95;;;2.70;;
61569;SDS011;47462;59.172;17.196;2022-12-15T07:37:29;5.03;;;2.47;;
61569;SDS011;47462;59.172;17.196;2022-12-15T07:39:55;4.47;;;2.58;;
61569;SDS011;47462;59.172;17.196;2022-12-15T07:42:20;5.07;;;3.20;;
61569;SDS011;47462;59.172;17.196;2022-12-15T07:44:46;4.95;;;3.65;;
61569;SDS011;47462;59.172;17.196;2022-12-15T07:47:11;7.10;;;4.43;;
61569;SDS011;47462;59.172;17.196;2022-12-15T07:49:36;5.55;;;3.35;;
61569;SDS011;47462;59.172;17.196;2022-12-15T07:52:02;4.13;;;3.08;;
61569;SDS011;47462;59.172;17.196;2022-12-15T07:54:28;5.18;;;3.03;;
61569;SDS011;47462;59.172;17.196;2022-12-15T07:56:53;4.47;;;3.17;;
61569;SDS011;47462;59.172;17.196;2022-12-15T07:59:19;5.13;;;2.92;;
61569;SDS011;47462;59.172;17.196;2022-12-15T08:01:45;5.40;;;3.25;;
61569;SDS011;47462;59.172;17.196;2022-12-15T08:04:10;4.00;;;2.83;;
61569;SDS011;47462;59.172;17.196;2022-12-15T08:06:36;4.47;;;3.15;;
61569;SDS011;47462;59.172;17.196;2022-12-15T08:09:01;3.80;;;3.00;;
61569;SDS011;47462;59.172;17.196;2022-12-15T08:11:26;4.83;;;2.90;;
61569;SDS011;47462;59.172;17.196;2022-12-15T08:13:52;9.02;;;3.35;;
61569;SDS011;47462;59.172;17.196;2022-12-15T08:16:17;5.65;;;3.13;;
61569;SDS011;47462;59.172;17.196;2022-12-15T08:18:43;5.63;;;3.08;;
61569;SDS011;47462;59.172;17.196;2022-12-15T08:21:09;5.18;;;3.30;;
61569;SDS011;47462;59.172;17.196;2022-12-15T08:23:36;6.28;;;3.60;;
61569;SDS011;47462;59.172;17.196;2022-12-15T08:26:05;9.80;;;3.65;;
61569;SDS011;47462;59.172;17.196;2022-12-15T08:28:33;8.45;;;3.60;;
61569;SDS011;47462;59.172;17.196;2022-12-15T08:31:03;7.13;;;3.10;;
61569;SDS011;47462;59.172;17.196;2022-12-15T08:33:29;6.00;;;3.35;;
61569;SDS011;47462;59.172;17.196;2022-12-15T08:35:58;5.03;;;3.47;;
61569;SDS011;47462;59.172;17.196;2022-12-15T08:38:25;6.07;;;3.45;;
61569;SDS011;47462;59.172;17.196;2022-12-15T08:40:50;6.15;;;3.28;;
61569;SDS011;47462;59.172;17.196;2022-12-15T08:43:16;6.80;;;3.83;;
61569;SDS011;47462;59.172;17.196;2022-12-15T08:45:41;5.55;;;3.45;;
61569;SDS011;47462;59.172;17.196;2022-12-15T08:48:06;7.45;;;4.32;;
61569;SDS011;47462;59.172;17.196;2022-12-15T08:50:32;8.50;;;4.30;;
61569;SDS011;47462;59.172;17.196;2022-12-15T08:52:57;7.27;;;4.00;;
61569;SDS011;47462;59.172;17.196;2022-12-15T08:55:23;6.80;;;3.50;;
61569;SDS011;47462;59.172;17.196;2022-12-15T08:57:49;4.70;;;3.20;;
61569;SDS011;47462;59.172;17.196;2022-12-15T09:00:15;6.90;;;3.35;;
61569;SDS011;47462;59.172;17.196;2022-12-15T09:02:42;5.40;;;3.33;;
61569;SDS011;47462;59.172;17.196;2022-12-15T09:05:07;7.18;;;3.72;;
61569;SDS011;47462;59.172;17.196;2022-12-15T09:07:33;5.20;;;3.55;;
61569;SDS011;47462;59.172;17.196;2022-12-15T09:09:58;7.70;;;3.80;;
61569;SDS011;47462;59.172;17.196;2022-12-15T09:12:24;4.68;;;2.90;;
61569;SDS011;47462;59.172;17.196;2022-12-15T09:14:49;5.93;;;3.33;;
61569;SDS011;47462;59.172;17.196;2022-12-15T09:17:14;4.37;;;3.07;;
61569;SDS011;47462;59.172;17.196;2022-12-15T09:19:40;5.83;;;3.37;;
61569;SDS011;47462;59.172;17.196;2022-12-15T09:22:05;5.97;;;3.00;;
61569;SDS011;47462;59.172;17.196;2022-12-15T09:26:57;3.67;;;2.50;;
61569;SDS011;47462;59.172;17.196;2022-12-15T09:29:22;5.37;;;3.47;;
61569;SDS011;47462;59.172;17.196;2022-12-15T09:31:48;18.02;;;8.93;;
61569;SDS011;47462;59.172;17.196;2022-12-15T09:34:16;12.07;;;5.75;;
61569;SDS011;47462;59.172;17.196;2022-12-15T09:36:41;11.57;;;4.32;;
61569;SDS011;47462;59.172;17.196;2022-12-15T09:39:07;8.50;;;4.47;;
61569;SDS011;47462;59.172;17.196;2022-12-15T09:41:35;7.22;;;3.90;;
61569;SDS011;47462;59.172;17.196;2022-12-15T09:44:03;6.07;;;4.00;;
61569;SDS011;47462;59.172;17.196;2022-12-15T09:49:17;7.13;;;3.50;;
61569;SDS011;47462;59.172;17.196;2022-12-15T09:51:51;7.68;;;4.38;;
61569;SDS011;47462;59.172;17.196;2022-12-15T09:54:23;11.48;;;4.78;;
61569;SDS011;47462;59.172;17.196;2022-12-15T09:56:55;8.65;;;3.78;;
61569;SDS011;47462;59.172;17.196;2022-12-15T09:59:29;7.43;;;3.85;;
61569;SDS011;47462;59.172;17.196;2022-12-15T10:04:48;8.80;;;4.35;;
61569;SDS011;47462;59.172;17.196;2022-12-15T10:07:39;6.88;;;3.42;;
61569;SDS011;47462;59.172;17.196;2022-12-15T10:10:30;11.00;;;5.50;;
61569;SDS011;47462;59.172;17.196;2022-12-15T10:13:03;9.05;;;4.60;;
61569;SDS011;47462;59.172;17.196;2022-12-15T10:16:26;9.88;;;4.25;;
61569;SDS011;47462;59.172;17.196;2022-12-15T10:18:42;8.98;;;4.20;;
61569;SDS011;47462;59.172;17.196;2022-12-15T10:21:13;9.80;;;4.43;;
61569;SDS011;47462;59.172;17.196;2022-12-15T10:23:39;11.87;;;5.00;;
61569;SDS011;47462;59.172;17.196;2022-12-15T10:26:13;13.67;;;5.27;;
61569;SDS011;47462;59.172;17.196;2022-12-15T10:31:15;8.43;;;4.10;;
61569;SDS011;47462;59.172;17.196;2022-12-15T10:33:51;9.48;;;4.45;;
61569;SDS011;47462;59.172;17.196;2022-12-15T10:36:21;7.18;;;4.07;;
61569;SDS011;47462;59.172;17.196;2022-12-15T10:38:47;7.90;;;4.30;;
61569;SDS011;47462;59.172;17.196;2022-12-15T10:41:14;8.02;;;4.03;;
61569;SDS011;47462;59.172;17.196;2022-12-15T10:43:48;7.70;;;3.80;;
61569;SDS011;47462;59.172;17.196;2022-12-15T10:46:15;7.95;;;3.67;;
61569;SDS011;47462;59.172;17.196;2022-12-15T10:48:49;5.70;;;3.42;;
61569;SDS011;47462;59.172;17.196;2022-12-15T10:54:04;5.93;;;3.33;;
61569;SDS011;47462;59.172;17.196;2022-12-15T10:56:33;8.25;;;3.42;;
61569;SDS011;47462;59.172;17.196;2022-12-15T11:01:47;7.75;;;3.90;;
61569;SDS011;47462;59.172;17.196;2022-12-15T11:04:26;8.23;;;3.80;;
61569;SDS011;47462;59.172;17.196;2022-12-15T11:06:56;9.02;;;3.60;;
61569;SDS011;47462;59.172;17.196;2022-12-15T11:09:36;6.25;;;3.42;;
61569;SDS011;47462;59.172;17.196;2022-12-15T11:12:16;8.68;;;3.10;;
61569;SDS011;47462;59.172;17.196;2022-12-15T11:15:07;4.80;;;3.13;;
61569;SDS011;47462;59.172;17.196;2022-12-15T11:17:58;6.18;;;3.30;;
61569;SDS011;47462;59.172;17.196;2022-12-15T11:20:29;6.20;;;3.10;;
61569;SDS011;47462;59.172;17.196;2022-12-15T11:23:00;9.13;;;3.72;;
61569;SDS011;47462;59.172;17.196;2022-12-15T11:25:35;9.38;;;3.88;;
61569;SDS011;47462;59.172;17.196;2022-12-15T11:28:17;5.75;;;3.17;;
61569;SDS011;47462;59.172;17.196;2022-12-15T11:30:56;8.13;;;5.07;;
61569;SDS011;47462;59.172;17.196;2022-12-15T11:33:44;6.78;;;3.55;;
61569;SDS011;47462;59.172;17.196;2022-12-15T11:36:12;6.60;;;4.03;;
61569;SDS011;47462;59.172;17.196;2022-12-15T11:38:54;6.05;;;3.55;;
61569;SDS011;47462;59.172;17.196;2022-12-15T11:41:39;7.18;;;3.60;;
61569;SDS011;47462;59.172;17.196;2022-12-15T11:46:46;8.13;;;3.88;;
61569;SDS011;47462;59.172;17.196;2022-12-15T11:52:40;7.53;;;4.10;;
61569;SDS011;47462;59.172;17.196;2022-12-15T12:03:36;9.60;;;4.60;;
61569;SDS011;47462;59.172;17.196;2022-12-15T12:12:13;5.28;;;3.58;;
61569;SDS011;47462;59.172;17.196;2022-12-15T12:17:39;5.80;;;3.47;;
61569;SDS011;47462;59.172;17.196;2022-12-15T12:20:13;6.38;;;3.53;;
61569;SDS011;47462;59.172;17.196;2022-12-15T12:22:47;6.00;;;2.78;;
61569;SDS011;47462;59.172;17.196;2022-12-15T12:25:16;6.10;;;3.50;;
61569;SDS011;47462;59.172;17.196;2022-12-15T12:27:55;6.60;;;3.33;;
61569;SDS011;47462;59.172;17.196;2022-12-15T12:30:26;4.10;;;2.60;;
61569;SDS011;47462;59.172;17.196;2022-12-15T12:33:02;6.78;;;3.30;;
61569;SDS011;47462;59.172;17.196;2022-12-15T12:35:49;4.15;;;2.50;;
61569;SDS011;47462;59.172;17.196;2022-12-15T12:38:22;4.78;;;2.72;;
61569;SDS011;47462;59.172;17.196;2022-12-15T12:48:50;8.68;;;2.88;;
61569;SDS011;47462;59.172;17.196;2022-12-15T12:51:28;5.93;;;3.20;;
61569;SDS011;47462;59.172;17.196;2022-12-15T12:53:57;7.50;;;3.25;;
61569;SDS011;47462;59.172;17.196;2022-12-15T12:56:39;5.90;;;3.47;;
61569;SDS011;47462;59.172;17.196;2022-12-15T13:02:22;5.82;;;3.10;;
61569;SDS011;47462;59.172;17.196;2022-12-15T13:05:02;7.10;;;3.97;;
61569;SDS011;47462;59.172;17.196;2022-12-15T13:10:29;7.80;;;4.93;;
61569;SDS011;47462;59.172;17.196;2022-12-15T13:26:50;4.70;;;2.65;;
61569;SDS011;47462;59.172;17.196;2022-12-15T13:29:15;4.80;;;2.85;;
61569;SDS011;47462;59.172;17.196;2022-12-15T13:31:47;5.22;;;2.88;;
61569;SDS011;47462;59.172;17.196;2022-12-15T13:34:17;5.32;;;3.00;;
61569;SDS011;47462;59.172;17.196;2022-12-15T13:36:46;4.80;;;2.83;;
61569;SDS011;47462;59.172;17.196;2022-12-15T13:46:48;5.72;;;3.45;;
61569;SDS011;47462;59.172;17.196;2022-12-15T13:49:21;4.47;;;2.60;;
61569;SDS011;47462;59.172;17.196;2022-12-15T13:52:03;5.43;;;2.72;;
61569;SDS011;47462;59.172;17.196;2022-12-15T13:54:40;5.97;;;3.40;;
61569;SDS011;47462;59.172;17.196;2022-12-15T13:57:14;5.97;;;2.90;;
61569;SDS011;47462;59.172;17.196;2022-12-15T13:59:43;5.28;;;2.85;;
61569;SDS011;47462;59.172;17.196;2022-12-15T14:02:29;6.60;;;3.78;;
61569;SDS011;47462;59.172;17.196;2022-12-15T14:12:57;5.90;;;3.25;;
61569;SDS011;47462;59.172;17.196;2022-12-15T14:15:31;6.05;;;2.90;;
61569;SDS011;47462;59.172;17.196;2022-12-15T14:17:57;6.00;;;3.13;;
61569;SDS011;47462;59.172;17.196;2022-12-15T14:20:29;6.70;;;3.35;;
61569;SDS011;47462;59.172;17.196;2022-12-15T14:23:05;5.15;;;2.90;;
61569;SDS011;47462;59.172;17.196;2022-12-15T14:28:33;4.20;;;3.05;;
61569;SDS011;47462;59.172;17.196;2022-12-15T14:31:04;6.00;;;3.15;;
61569;SDS011;47462;59.172;17.196;2022-12-15T14:33:35;6.15;;;4.32;;
61569;SDS011;47462;59.172;17.196;2022-12-15T14:36:05;5.63;;;4.10;;
61569;SDS011;47462;59.172;17.196;2022-12-15T14:38:42;6.07;;;3.50;;
61569;SDS011;47462;59.172;17.196;2022-12-15T14:41:07;7.05;;;4.15;;
61569;SDS011;47462;59.172;17.196;2022-12-15T14:44:04;5.85;;;3.65;;
61569;SDS011;47462;59.172;17.196;2022-12-15T14:46:32;9.80;;;6.45;;
61569;SDS011;47462;59.172;17.196;2022-12-15T14:49:07;13.10;;;8.88;;
61569;SDS011;47462;59.172;17.196;2022-12-15T14:51:41;10.68;;;5.65;;
61569;SDS011;47462;59.172;17.196;2022-12-15T14:56:58;6.68;;;3.78;;
61569;SDS011;47462;59.172;17.196;2022-12-15T14:59:31;7.00;;;3.40;;
61569;SDS011;47462;59.172;17.196;2022-12-15T15:02:08;6.78;;;3.17;;
61569;SDS011;47462;59.172;17.196;2022-12-15T15:04:36;5.55;;;2.97;;
61569;SDS011;47462;59.172;17.196;2022-12-15T15:07:16;5.40;;;2.67;;
61569;SDS011;47462;59.172;17.196;2022-12-15T15:09:43;5.13;;;3.10;;
61569;SDS011;47462;59.172;17.196;2022-12-15T15:20:00;5.05;;;2.30;;
61569;SDS011;47462;59.172;17.196;2022-12-15T15:22:37;3.67;;;2.30;;
61569;SDS011;47462;59.172;17.196;2022-12-15T15:30:43;4.97;;;3.05;;
61569;SDS011;47462;59.172;17.196;2022-12-15T15:33:10;7.63;;;4.57;;
61569;SDS011;47462;59.172;17.196;2022-12-15T15:35:40;8.95;;;6.95;;
61569;SDS011;47462;59.172;17.196;2022-12-15T15:40:53;7.80;;;5.95;;
61569;SDS011;47462;59.172;17.196;2022-12-15T15:43:21;6.07;;;3.80;;
61569;SDS011;47462;59.172;17.196;2022-12-15T15:45:47;4.63;;;2.40;;
61569;SDS011;47462;59.172;17.196;2022-12-15T15:48:20;3.88;;;2.10;;
61569;SDS011;47462;59.172;17.196;2022-12-15T15:50:50;5.25;;;2.63;;
61569;SDS011;47462;59.172;17.196;2022-12-15T15:53:17;3.50;;;2.30;;
61569;SDS011;47462;59.172;17.196;2022-12-15T15:55:44;3.60;;;2.00;;
61569;SDS011;47462;59.172;17.196;2022-12-15T15:58:11;3.95;;;2.40;;
61569;SDS011;47462;59.172;17.196;2022-12-15T16:00:37;3.78;;;2.15;;
61569;SDS011;47462;59.172;17.196;2022-12-15T16:03:04;3.50;;;1.95;;
61569;SDS011;47462;59.172;17.196;2022-12-15T16:05:30;3.13;;;2.25;;
61569;SDS011;47462;59.172;17.196;2022-12-15T16:07:55;4.13;;;1.55;;
61569;SDS011;47462;59.172;17.196;2022-12-15T16:10:25;3.83;;;2.40;;
61569;SDS011;47462;59.172;17.196;2022-12-15T16:12:51;3.00;;;1.88;;
61569;SDS011;47462;59.172;17.196;2022-12-15T16:17:45;3.93;;;2.33;;
61569;SDS011;47462;59.172;17.196;2022-12-15T16:20:12;4.63;;;3.15;;
61569;SDS011;47462;59.172;17.196;2022-12-15T16:22:42;5.10;;;2.47;;
61569;SDS011;47462;59.172;17.196;2022-12-15T16:25:52;3.45;;;2.20;;
61569;SDS011;47462;59.172;17.196;2022-12-15T16:28:01;4.15;;;2.08;;
61569;SDS011;47462;59.172;17.196;2022-12-15T16:30:27;4.97;;;1.80;;
61569;SDS011;47462;59.172;17.196;2022-12-15T16:32:53;3.03;;;1.85;;
61569;SDS011;47462;59.172;17.196;2022-12-15T16:35:19;3.05;;;1.58;;
61569;SDS011;47462;59.172;17.196;2022-12-15T16:40:12;4.32;;;2.15;;
61569;SDS011;47462;59.172;17.196;2022-12-15T16:42:39;4.28;;;2.80;;
61569;SDS011;47462;59.172;17.196;2022-12-15T16:45:13;4.15;;;2.65;;
61569;SDS011;47462;59.172;17.196;2022-12-15T16:47:40;4.72;;;2.80;;
61569;SDS011;47462;59.172;17.196;2022-12-15T16:50:05;5.33;;;3.33;;
61569;SDS011;47462;59.172;17.196;2022-12-15T16:52:34;3.33;;;2.30;;
61569;SDS011;47462;59.172;17.196;2022-12-15T16:54:59;3.40;;;2.20;;
61569;SDS011;47462;59.172;17.196;2022-12-15T16:57:25;4.15;;;2.75;;
61569;SDS011;47462;59.172;17.196;2022-12-15T16:59:50;4.43;;;2.25;;
61569;SDS011;47462;59.172;17.196;2022-12-15T17:04:51;5.78;;;2.97;;
61569;SDS011;47462;59.172;17.196;2022-12-15T17:07:19;6.07;;;2.10;;
61569;SDS011;47462;59.172;17.196;2022-12-15T17:12:11;2.95;;;2.30;;
61569;SDS011;47462;59.172;17.196;2022-12-15T17:14:39;7.90;;;3.30;;
61569;SDS011;47462;59.172;17.196;2022-12-15T17:17:12;6.78;;;4.25;;
61569;SDS011;47462;59.172;17.196;2022-12-15T17:19:38;4.32;;;2.45;;
61569;SDS011;47462;59.172;17.196;2022-12-15T17:22:07;4.40;;;2.70;;
61569;SDS011;47462;59.172;17.196;2022-12-15T17:24:36;4.63;;;2.50;;
61569;SDS011;47462;59.172;17.196;2022-12-15T17:27:03;4.13;;;2.17;;
61569;SDS011;47462;59.172;17.196;2022-12-15T17:29:29;3.53;;;1.98;;
61569;SDS011;47462;59.172;17.196;2022-12-15T17:31:54;2.38;;;1.63;;
61569;SDS011;47462;59.172;17.196;2022-12-15T17:34:27;2.60;;;1.65;;
61569;SDS011;47462;59.172;17.196;2022-12-15T17:37:00;4.20;;;1.80;;
61569;SDS011;47462;59.172;17.196;2022-12-15T17:39:28;2.28;;;1.40;;
61569;SDS011;47462;59.172;17.196;2022-12-15T17:41:57;2.97;;;1.67;;
61569;SDS011;47462;59.172;17.196;2022-12-15T17:44:24;3.25;;;2.15;;
61569;SDS011;47462;59.172;17.196;2022-12-15T17:46:51;3.40;;;2.20;;